Time;durP1;ratioP1;P1;durP2;ratioP2;P2;SDS_P1;SDS_P2;PMS_P1;PMS_P2;Temp;Humidity;BMP_temperature;BMP_pressure;BME280_temperature;BME280_humidity;BME280_pressure;Samples;Min_cycle;Max_cycle;Signal;HPM_P1;HPM_P2
2021/05/12 00:00:19;;;;;;;2.08;1.05;;;12.20;99.90;;;;;;1865269;77;21453;-67
2021/05/12 00:02:45;;;;;;;1.00;0.90;;;12.20;99.90;;;;;;1863150;77;21177;-70
2021/05/12 00:05:11;;;;;;;1.25;1.10;;;12.10;99.90;;;;;;1863026;77;21036;-71
2021/05/12 00:07:37;;;;;;;1.10;1.00;;;12.20;99.90;;;;;;1862981;77;21113;-72
2021/05/12 00:10:03;;;;;;;1.62;0.90;;;12.30;99.90;;;;;;1862912;77;21084;-72
2021/05/12 00:12:30;;;;;;;0.85;0.85;;;12.20;99.90;;;;;;1862928;77;21254;-71
2021/05/12 00:14:56;;;;;;;1.27;0.80;;;12.20;99.90;;;;;;1862896;77;21081;-73
2021/05/12 00:17:22;;;;;;;0.98;0.90;;;12.20;99.90;;;;;;1862969;77;21067;-72
2021/05/12 00:20:00;;;;;;;1.92;1.50;;;12.20;99.90;;;;;;1862987;77;21158;-72
2021/05/12 00:22:49;;;;;;;1.62;1.05;;;12.20;99.90;;;;;;1862682;77;21105;-72
2021/05/12 00:25:11;;;;;;;2.00;0.95;;;12.10;99.90;;;;;;1862212;77;21104;-72
2021/05/12 00:27:37;;;;;;;3.05;1.10;;;12.10;99.90;;;;;;1863015;77;21452;-70
2021/05/12 00:30:03;;;;;;;0.90;0.80;;;12.20;99.90;;;;;;1862828;77;21124;-72
2021/05/12 00:32:30;;;;;;;4.62;1.17;;;12.20;99.90;;;;;;1863157;77;21620;-71
2021/05/12 00:34:56;;;;;;;0.70;0.70;;;12.30;99.90;;;;;;1862835;77;21491;-71
2021/05/12 00:37:22;;;;;;;3.42;1.40;;;12.20;99.90;;;;;;1863096;77;21571;-71
2021/05/12 00:39:48;;;;;;;1.50;0.78;;;12.20;99.90;;;;;;1862825;77;21523;-72
2021/05/12 00:42:14;;;;;;;0.90;0.90;;;12.20;99.90;;;;;;1863136;77;21079;-72
2021/05/12 00:44:40;;;;;;;1.47;0.82;;;12.20;99.90;;;;;;1862918;77;21095;-70
2021/05/12 00:47:06;;;;;;;0.98;0.88;;;12.10;99.90;;;;;;1863077;77;21052;-72
2021/05/12 00:49:32;;;;;;;1.92;0.80;;;12.20;99.90;;;;;;1863039;77;21075;-70
2021/05/12 00:51:59;;;;;;;0.72;0.72;;;12.20;99.90;;;;;;1863066;77;21145;-72
2021/05/12 00:54:25;;;;;;;3.77;0.90;;;12.10;99.90;;;;;;1863041;77;21048;-72
2021/05/12 00:56:51;;;;;;;19.98;1.47;;;12.20;99.90;;;;;;1863046;77;21142;-72
2021/05/12 00:59:17;;;;;;;2.17;1.25;;;12.20;99.90;;;;;;1862813;77;21080;-71
2021/05/12 01:01:43;;;;;;;2.08;0.80;;;12.10;99.90;;;;;;1862979;77;21090;-71
2021/05/12 01:04:09;;;;;;;1.30;0.90;;;12.10;99.90;;;;;;1862889;77;21153;-71
2021/05/12 01:06:35;;;;;;;1.02;0.70;;;12.10;99.90;;;;;;1862988;77;21048;-72
2021/05/12 01:09:01;;;;;;;1.12;1.02;;;12.10;99.90;;;;;;1862968;77;21064;-70
2021/05/12 01:11:28;;;;;;;1.10;1.00;;;12.10;99.90;;;;;;1863040;77;21076;-72
2021/05/12 01:13:54;;;;;;;1.07;0.68;;;12.10;99.90;;;;;;1863024;77;21141;-71
2021/05/12 01:16:20;;;;;;;1.60;0.70;;;12.20;99.90;;;;;;1863207;77;21184;-71
2021/05/12 01:18:46;;;;;;;0.80;0.65;;;12.10;99.90;;;;;;1863155;77;21083;-71
2021/05/12 01:21:12;;;;;;;0.85;0.85;;;12.10;99.90;;;;;;1863152;77;21080;-72
2021/05/12 01:23:38;;;;;;;2.70;1.10;;;12.10;99.90;;;;;;1863224;77;21146;-72
2021/05/12 01:26:04;;;;;;;1.10;0.85;;;12.10;99.90;;;;;;1862971;77;21145;-72
2021/05/12 01:28:31;;;;;;;0.72;0.72;;;11.90;99.90;;;;;;1862992;77;21142;-71
2021/05/12 01:30:57;;;;;;;1.92;0.98;;;11.90;99.90;;;;;;1862958;77;21154;-70
2021/05/12 01:33:23;;;;;;;0.60;0.60;;;12.00;99.90;;;;;;1862914;77;21053;-70
2021/05/12 01:35:49;;;;;;;2.33;0.98;;;12.00;99.90;;;;;;1862919;77;21149;-72
2021/05/12 01:38:15;;;;;;;1.40;0.78;;;12.00;99.90;;;;;;1862888;77;21088;-71
2021/05/12 01:40:41;;;;;;;2.55;0.82;;;11.90;99.90;;;;;;1863075;77;21481;-73
2021/05/12 01:43:07;;;;;;;1.22;0.70;;;11.90;99.90;;;;;;1862931;77;21473;-71
2021/05/12 01:45:34;;;;;;;1.10;0.70;;;11.80;99.90;;;;;;1862963;77;21056;-71
2021/05/12 01:48:00;;;;;;;1.10;0.60;;;11.80;99.90;;;;;;1863109;77;21127;-71
2021/05/12 01:50:26;;;;;;;3.83;0.45;;;11.80;99.90;;;;;;1862829;77;21091;-71
2021/05/12 01:52:52;;;;;;;3.02;0.70;;;11.70;99.90;;;;;;1862994;77;21088;-72
2021/05/12 01:55:19;;;;;;;4.90;0.80;;;11.70;99.90;;;;;;1862906;77;21059;-71
2021/05/12 01:57:45;;;;;;;3.02;0.65;;;11.70;99.90;;;;;;1862862;77;21449;-70
2021/05/12 02:00:11;;;;;;;2.98;0.85;;;11.70;99.90;;;;;;1862980;77;21530;-71
2021/05/12 02:02:37;;;;;;;3.12;0.50;;;11.60;99.90;;;;;;1863088;77;21480;-71
2021/05/12 02:05:03;;;;;;;2.50;0.70;;;11.50;99.90;;;;;;1862924;77;21553;-70
2021/05/12 02:07:29;;;;;;;2.70;0.68;;;11.50;99.90;;;;;;1862921;77;21558;-70
2021/05/12 02:09:55;;;;;;;0.60;0.60;;;11.50;99.90;;;;;;1862982;77;21146;-70
2021/05/12 02:12:21;;;;;;;2.37;0.60;;;11.50;99.90;;;;;;1863011;77;21215;-70
2021/05/12 02:14:48;;;;;;;1.17;0.80;;;11.40;99.90;;;;;;1862951;77;21084;-70
2021/05/12 02:17:14;;;;;;;5.70;0.70;;;11.40;99.90;;;;;;1862923;77;21083;-70
2021/05/12 02:19:40;;;;;;;1.00;0.90;;;11.40;99.90;;;;;;1862870;77;21093;-70
2021/05/12 02:22:06;;;;;;;5.20;1.17;;;11.50;99.90;;;;;;1862913;77;21076;-70
2021/05/12 02:24:32;;;;;;;1.35;0.70;;;11.50;99.90;;;;;;1862943;77;21076;-70
2021/05/12 02:26:58;;;;;;;4.15;0.72;;;11.50;99.90;;;;;;1862996;77;21055;-70
2021/05/12 02:29:24;;;;;;;6.12;1.02;;;11.50;99.90;;;;;;1862960;77;21133;-70
2021/05/12 02:31:51;;;;;;;1.02;0.75;;;11.50;99.90;;;;;;1862794;77;21201;-70
2021/05/12 02:34:17;;;;;;;0.60;0.60;;;11.50;99.90;;;;;;1862930;77;21084;-70
2021/05/12 02:36:43;;;;;;;1.65;0.98;;;11.40;99.90;;;;;;1863001;77;21467;-69
2021/05/12 02:39:09;;;;;;;1.02;0.95;;;11.40;99.90;;;;;;1862914;77;21521;-70
2021/05/12 02:41:35;;;;;;;2.67;0.80;;;11.50;99.90;;;;;;1862819;77;21593;-70
2021/05/12 02:44:01;;;;;;;1.52;0.88;;;11.50;99.90;;;;;;1863058;77;21483;-70
2021/05/12 02:46:27;;;;;;;2.08;1.17;;;11.40;99.90;;;;;;1862890;77;21495;-70
2021/05/12 02:48:53;;;;;;;1.87;1.12;;;11.40;99.90;;;;;;1863121;77;21079;-70
2021/05/12 02:51:19;;;;;;;4.85;1.22;;;11.40;99.90;;;;;;1862850;77;21142;-70
2021/05/12 02:53:46;;;;;;;0.72;0.72;;;11.40;99.90;;;;;;1862928;77;21121;-72
2021/05/12 02:56:12;;;;;;;1.20;1.10;;;11.40;99.90;;;;;;1861411;76;21088;-70
2021/05/12 02:58:38;;;;;;;1.98;1.10;;;11.40;99.90;;;;;;1862842;77;21087;-70
2021/05/12 03:01:04;;;;;;;2.22;1.10;;;11.40;99.90;;;;;;1863009;77;21166;-70
2021/05/12 03:03:30;;;;;;;2.72;1.32;;;11.40;99.90;;;;;;1862891;77;21197;-70
2021/05/12 03:05:56;;;;;;;2.50;1.40;;;11.40;99.90;;;;;;1862831;77;21051;-70
2021/05/12 03:08:22;;;;;;;2.08;1.20;;;11.40;99.90;;;;;;1862870;77;21079;-70
2021/05/12 03:10:48;;;;;;;2.62;1.57;;;11.40;99.90;;;;;;1862896;77;21144;-70
2021/05/12 03:13:15;;;;;;;2.27;1.42;;;11.40;99.90;;;;;;1862919;77;21141;-70
2021/05/12 03:15:41;;;;;;;2.05;1.25;;;11.40;99.90;;;;;;1862893;77;21121;-70
2021/05/12 03:18:07;;;;;;;4.00;1.30;;;11.30;99.90;;;;;;1863019;77;21121;-69
2021/05/12 03:20:33;;;;;;;4.12;1.62;;;11.40;99.90;;;;;;1862812;77;21161;-70
2021/05/12 03:22:59;;;;;;;4.83;1.17;;;11.30;99.90;;;;;;1862957;77;21063;-70
2021/05/12 03:25:25;;;;;;;6.30;1.55;;;11.30;99.90;;;;;;1862794;77;21048;-71
2021/05/12 03:27:51;;;;;;;1.32;1.22;;;11.40;99.90;;;;;;1862964;77;21181;-70
2021/05/12 03:30:18;;;;;;;1.82;1.52;;;11.30;99.90;;;;;;1862851;77;21145;-70
2021/05/12 03:32:44;;;;;;;2.25;1.52;;;11.30;99.90;;;;;;1862920;77;21080;-70
2021/05/12 03:35:10;;;;;;;1.65;1.45;;;11.30;99.90;;;;;;1862889;77;21079;-70
2021/05/12 03:37:36;;;;;;;2.92;1.55;;;11.30;99.90;;;;;;1862897;77;21056;-70
2021/05/12 03:40:02;;;;;;;4.45;1.98;;;11.20;99.90;;;;;;1862858;77;21099;-70
2021/05/12 03:42:28;;;;;;;3.70;2.00;;;11.20;99.90;;;;;;1863000;77;21084;-70
2021/05/12 03:44:56;;;;;;;5.80;1.80;;;11.20;99.90;;;;;;1863140;77;21137;-70
2021/05/12 03:47:22;;;;;;;7.92;2.02;;;11.20;99.90;;;;;;1863116;77;21154;-71
2021/05/12 03:49:48;;;;;;;3.70;1.95;;;11.20;99.90;;;;;;1862886;77;21129;-71
2021/05/12 03:52:14;;;;;;;7.03;2.10;;;11.30;99.90;;;;;;1863226;77;21138;-71
2021/05/12 03:54:41;;;;;;;5.03;1.70;;;11.30;99.90;;;;;;1863220;77;21196;-72
2021/05/12 03:57:07;;;;;;;7.22;2.25;;;11.40;99.90;;;;;;1863328;77;21040;-71
2021/05/12 03:59:33;;;;;;;3.72;1.80;;;11.40;99.90;;;;;;1863285;77;21057;-70
2021/05/12 04:01:59;;;;;;;9.05;2.30;;;11.40;99.90;;;;;;1863440;77;21051;-71
2021/05/12 04:04:25;;;;;;;3.85;2.22;;;11.40;99.90;;;;;;1863192;77;21138;-71
2021/05/12 04:06:51;;;;;;;3.17;2.17;;;11.40;99.90;;;;;;1863336;77;21570;-71
2021/05/12 04:09:17;;;;;;;4.37;2.50;;;11.40;99.90;;;;;;1863339;77;21157;-71
2021/05/12 04:11:46;;;;;;;3.55;2.02;;;11.40;99.90;;;;;;1863572;77;21118;-71
2021/05/12 04:14:11;;;;;;;2.70;2.20;;;11.40;99.90;;;;;;1863170;77;21241;-71
2021/05/12 04:16:38;;;;;;;4.40;2.42;;;11.30;99.90;;;;;;1863400;77;21105;-71
2021/05/12 04:19:04;;;;;;;3.45;2.40;;;11.30;99.90;;;;;;1863221;77;21087;-71
2021/05/12 04:21:30;;;;;;;4.95;2.45;;;11.40;99.90;;;;;;1863386;77;21142;-72
2021/05/12 04:23:56;;;;;;;5.10;2.75;;;11.40;99.90;;;;;;1863369;77;21060;-72
2021/05/12 04:26:22;;;;;;;9.13;2.90;;;11.40;99.90;;;;;;1863506;77;21146;-72
2021/05/12 04:28:51;;;;;;;6.35;2.62;;;11.50;99.90;;;;;;1863343;77;21101;-72
2021/05/12 04:31:17;;;;;;;8.98;2.75;;;11.30;99.90;;;;;;1863343;77;21535;-71
2021/05/12 04:33:43;;;;;;;8.73;4.17;;;11.30;99.90;;;;;;1863492;77;21075;-72
2021/05/12 04:36:09;;;;;;;3.80;3.08;;;11.40;99.90;;;;;;1863233;77;21115;-71
2021/05/12 04:38:35;;;;;;;8.68;3.52;;;11.40;99.90;;;;;;1863495;77;21076;-71
2021/05/12 04:41:02;;;;;;;5.90;2.90;;;11.50;99.90;;;;;;1863336;77;21212;-72
2021/05/12 04:43:28;;;;;;;6.10;3.37;;;11.60;99.90;;;;;;1863618;77;21134;-72
2021/05/12 04:45:54;;;;;;;7.47;3.30;;;11.60;99.90;;;;;;1863561;77;21083;-72
2021/05/12 04:48:20;;;;;;;6.87;3.25;;;11.50;99.90;;;;;;1863542;77;21081;-72
2021/05/12 04:50:46;;;;;;;7.72;3.27;;;11.60;99.90;;;;;;1863518;77;21075;-72
2021/05/12 04:53:12;;;;;;;5.65;3.42;;;11.70;99.90;;;;;;1863735;77;21079;-72
2021/05/12 04:55:38;;;;;;;9.43;3.35;;;11.70;99.90;;;;;;1863630;77;21079;-72
2021/05/12 04:58:04;;;;;;;18.37;3.85;;;11.60;99.90;;;;;;1863541;77;21060;-72
2021/05/12 05:00:31;;;;;;;5.92;3.15;;;11.70;99.90;;;;;;1863542;77;21075;-72
2021/05/12 05:02:57;;;;;;;7.67;3.02;;;11.70;99.90;;;;;;1863492;77;21110;-71
2021/05/12 05:05:25;;;;;;;9.55;3.17;;;11.60;99.90;;;;;;1863491;77;21495;-72
2021/05/12 05:07:51;;;;;;;4.70;3.20;;;11.60;99.90;;;;;;1863559;77;21393;-71
2021/05/12 05:10:17;;;;;;;3.55;2.98;;;11.50;99.90;;;;;;1863664;77;21049;-71
2021/05/12 05:12:43;;;;;;;4.72;3.30;;;11.50;99.90;;;;;;1863531;77;21153;-72
2021/05/12 05:15:09;;;;;;;7.75;2.95;;;11.50;99.90;;;;;;1863665;77;21083;-71
2021/05/12 05:17:35;;;;;;;6.10;2.90;;;11.60;99.90;;;;;;1863454;77;21071;-70
2021/05/12 05:20:02;;;;;;;10.28;2.95;;;11.60;99.90;;;;;;1876384;76;21131;-71
2021/05/12 05:22:28;;;;;;;4.28;2.65;;;11.60;99.90;;;;;;1863446;77;21083;-71
2021/05/12 05:24:54;;;;;;;6.97;2.95;;;11.60;99.90;;;;;;1863498;77;21448;-71
2021/05/12 05:27:20;;;;;;;4.70;2.37;;;11.60;99.90;;;;;;1863620;77;21504;-71
2021/05/12 05:29:47;;;;;;;4.87;2.65;;;11.70;99.90;;;;;;1863793;77;21440;-71
2021/05/12 05:32:13;;;;;;;5.30;2.22;;;11.70;99.90;;;;;;1863410;77;21112;-71
2021/05/12 05:34:39;;;;;;;9.75;2.72;;;11.60;99.90;;;;;;1863500;77;21076;-70
2021/05/12 05:37:05;;;;;;;5.08;2.20;;;11.60;99.90;;;;;;1863373;77;21068;-71
2021/05/12 05:39:37;;;;;;;4.97;2.27;;;11.60;99.90;;;;;;1863382;77;21220;-71
2021/05/12 05:42:03;;;;;;;4.58;2.65;;;11.70;99.90;;;;;;1863475;77;21167;-71
2021/05/12 05:44:29;;;;;;;9.15;2.52;;;11.80;99.90;;;;;;1863661;77;21071;-71
2021/05/12 05:46:56;;;;;;;5.60;2.70;;;11.80;99.90;;;;;;1863481;77;21100;-73
2021/05/12 05:49:22;;;;;;;13.28;3.15;;;11.80;99.90;;;;;;1863684;77;21118;-73
2021/05/12 05:51:54;;;;;;;8.75;2.47;;;11.70;99.90;;;;;;1863415;76;21108;-75
2021/05/12 05:54:24;;;;;;;5.12;3.25;;;11.70;99.90;;;;;;1863632;77;21169;-72
2021/05/12 05:56:49;;;;;;;5.08;2.92;;;11.70;99.90;;;;;;1863668;77;21104;-74
2021/05/12 05:59:15;;;;;;;6.83;2.60;;;11.70;99.90;;;;;;1863721;77;21072;-74
2021/05/12 06:01:42;;;;;;;6.12;2.87;;;11.70;99.90;;;;;;1863755;77;21189;-75
2021/05/12 06:04:08;;;;;;;6.78;2.95;;;11.70;99.90;;;;;;1863683;77;21157;-74
2021/05/12 06:06:34;;;;;;;6.12;2.40;;;11.60;99.90;;;;;;1863844;77;21052;-75
2021/05/12 06:09:00;;;;;;;10.00;2.25;;;11.60;99.90;;;;;;1863791;77;21079;-74
2021/05/12 06:11:26;;;;;;;2.33;2.00;;;11.70;99.90;;;;;;1863499;77;21104;-74
2021/05/12 06:13:52;;;;;;;2.75;1.77;;;11.80;99.90;;;;;;1863678;77;21060;-74
2021/05/12 06:16:18;;;;;;;9.85;1.85;;;11.70;99.90;;;;;;1863489;77;21077;-75
2021/05/12 06:18:45;;;;;;;14.70;2.20;;;11.80;99.90;;;;;;1863645;77;21157;-75
2021/05/12 06:21:11;;;;;;;3.22;1.85;;;11.80;99.90;;;;;;1863457;77;21815;-74
2021/05/12 06:23:37;;;;;;;4.53;1.65;;;11.80;99.90;;;;;;1863737;77;21045;-73
2021/05/12 06:26:12;;;;;;;2.77;1.77;;;11.80;99.90;;;;;;1863491;77;21170;-75
2021/05/12 06:28:31;;;;;;;2.52;1.80;;;11.80;99.90;;;;;;1862073;77;21232;-73
2021/05/12 06:30:57;;;;;;;4.87;1.75;;;11.80;99.90;;;;;;1863381;77;21586;-73
2021/05/12 06:33:23;;;;;;;3.60;1.80;;;11.90;99.90;;;;;;1863450;77;21523;-73
2021/05/12 06:35:49;;;;;;;5.35;2.00;;;11.90;99.90;;;;;;1863632;77;21487;-74
2021/05/12 06:38:15;;;;;;;6.08;1.72;;;11.80;99.90;;;;;;1863561;77;21479;-74
2021/05/12 06:40:42;;;;;;;5.30;1.92;;;11.80;99.90;;;;;;1860433;76;21582;-75
2021/05/12 06:43:21;;;;;;;11.18;1.80;;;11.80;99.90;;;;;;1863558;77;21149;-76
2021/05/12 06:45:35;;;;;;;6.00;1.92;;;11.80;99.90;;;;;;1861450;77;21079;-75
2021/05/12 06:48:02;;;;;;;4.80;1.75;;;11.80;99.90;;;;;;1863628;77;21135;-74
2021/05/12 06:50:28;;;;;;;5.58;1.67;;;11.80;99.90;;;;;;1863607;77;21145;-74
2021/05/12 06:52:54;;;;;;;3.02;1.37;;;11.80;99.90;;;;;;1863634;77;21141;-75
2021/05/12 06:55:20;;;;;;;2.80;1.45;;;11.90;99.90;;;;;;1863687;77;21056;-74
2021/05/12 06:57:46;;;;;;;5.37;1.67;;;11.80;99.90;;;;;;1863594;77;21068;-76
2021/05/12 07:00:12;;;;;;;4.20;1.40;;;11.80;99.90;;;;;;1863481;77;21161;-75
2021/05/12 07:02:38;;;;;;;2.65;1.10;;;11.90;99.90;;;;;;1863523;77;21071;-75
2021/05/12 07:05:04;;;;;;;8.75;2.00;;;11.80;99.90;;;;;;1863497;77;21030;-75
2021/05/12 07:07:31;;;;;;;1.45;1.25;;;11.80;99.90;;;;;;1863567;77;21076;-76
2021/05/12 07:09:57;;;;;;;2.87;1.02;;;11.80;99.90;;;;;;1863582;77;21067;-74
2021/05/12 07:12:23;;;;;;;1.47;1.10;;;11.80;99.90;;;;;;1863700;77;21153;-75
2021/05/12 07:14:49;;;;;;;2.92;1.40;;;11.80;99.90;;;;;;1863449;77;21181;-74
2021/05/12 07:17:15;;;;;;;3.55;1.45;;;11.80;99.90;;;;;;1863629;77;21589;-74
2021/05/12 07:19:42;;;;;;;3.30;1.50;;;11.80;99.90;;;;;;1863548;77;21511;-73
2021/05/12 07:22:08;;;;;;;0.95;0.93;;;11.90;99.90;;;;;;1863421;77;21091;-76
2021/05/12 07:24:34;;;;;;;2.80;1.45;;;11.90;99.90;;;;;;1863572;77;21084;-74
2021/05/12 07:27:01;;;;;;;3.87;1.52;;;11.90;99.90;;;;;;1863531;77;21084;-74
2021/05/12 07:29:27;;;;;;;7.42;1.35;;;11.90;99.90;;;;;;1863623;77;21498;-74
2021/05/12 07:31:53;;;;;;;1.55;1.30;;;12.00;99.90;;;;;;1863514;77;21495;-75
2021/05/12 07:34:19;;;;;;;7.35;1.80;;;11.90;99.90;;;;;;1863490;77;21581;-74
2021/05/12 07:36:45;;;;;;;7.72;1.60;;;12.00;99.90;;;;;;1863501;77;21507;-74
2021/05/12 07:39:11;;;;;;;1.57;1.12;;;12.00;99.90;;;;;;1863427;77;21130;-74
2021/05/12 07:41:38;;;;;;;3.27;1.22;;;12.00;99.90;;;;;;1863465;77;21076;-75
2021/05/12 07:44:04;;;;;;;1.45;1.15;;;11.90;99.90;;;;;;1863406;77;21089;-75
2021/05/12 07:46:30;;;;;;;2.20;1.35;;;12.00;99.90;;;;;;1863474;77;21071;-75
2021/05/12 07:48:56;;;;;;;8.78;1.40;;;12.00;99.90;;;;;;1863408;77;21020;-76
2021/05/12 07:51:22;;;;;;;7.12;1.55;;;11.90;99.90;;;;;;1863331;77;21453;-75
2021/05/12 07:53:48;;;;;;;2.12;1.27;;;12.00;99.90;;;;;;1863449;77;21141;-74
2021/05/12 07:56:15;;;;;;;5.90;1.50;;;12.00;99.90;;;;;;1863465;77;21083;-74
2021/05/12 07:58:41;;;;;;;9.88;1.65;;;12.00;99.90;;;;;;1863575;77;21177;-74
2021/05/12 08:01:17;;;;;;;5.95;1.40;;;12.00;99.90;;;;;;1863603;77;21084;-75
2021/05/12 08:03:35;;;;;;;4.55;1.60;;;12.00;99.90;;;;;;1861646;77;21105;-75
2021/05/12 08:06:03;;;;;;;3.58;1.32;;;12.10;99.90;;;;;;1863665;77;21181;-75
2021/05/12 08:08:30;;;;;;;5.67;1.85;;;12.10;99.90;;;;;;1863524;77;21076;-75
2021/05/12 08:10:56;;;;;;;4.65;1.20;;;12.10;99.90;;;;;;1863513;77;21080;-74
2021/05/12 08:13:22;;;;;;;1.85;1.37;;;12.00;99.90;;;;;;1863634;77;21131;-75
2021/05/12 08:15:48;;;;;;;5.58;1.40;;;12.00;99.90;;;;;;1863370;77;21253;-74
2021/05/12 08:18:14;;;;;;;5.80;1.35;;;11.90;99.90;;;;;;1863700;77;21083;-76
2021/05/12 08:20:40;;;;;;;6.30;1.30;;;11.90;99.90;;;;;;1863665;77;21087;-76
2021/05/12 08:23:06;;;;;;;2.12;1.00;;;12.00;99.90;;;;;;1863786;77;21056;-76
2021/05/12 08:25:33;;;;;;;1.10;1.00;;;12.00;99.90;;;;;;1863705;77;21091;-75
2021/05/12 08:27:59;;;;;;;2.95;1.27;;;11.90;99.90;;;;;;1863672;77;21091;-76
2021/05/12 08:30:27;;;;;;;2.62;1.42;;;11.90;99.90;;;;;;1863408;77;21551;-76
2021/05/12 08:32:53;;;;;;;2.35;1.00;;;11.90;99.90;;;;;;1863517;77;21095;-75
2021/05/12 08:35:19;;;;;;;2.47;1.47;;;11.80;99.90;;;;;;1863725;77;21056;-74
2021/05/12 08:37:45;;;;;;;3.22;1.02;;;11.90;99.90;;;;;;1863506;77;21056;-75
2021/05/12 08:40:11;;;;;;;3.95;1.02;;;11.90;99.90;;;;;;1863561;77;21114;-74
2021/05/12 08:42:37;;;;;;;1.82;1.20;;;12.00;99.90;;;;;;1863415;77;21186;-75
2021/05/12 08:45:03;;;;;;;5.65;1.37;;;12.00;99.90;;;;;;1863559;77;21056;-75
2021/05/12 08:50:14;;;;;;;3.47;1.27;;;12.00;99.90;;;;;;1863696;76;21109;-75
2021/05/12 08:52:40;;;;;;;5.80;1.22;;;12.00;99.90;;;;;;1863452;77;21079;-75
2021/05/12 08:55:07;;;;;;;4.25;1.40;;;12.00;99.90;;;;;;1863306;77;21186;-74
2021/05/12 08:57:34;;;;;;;2.85;1.32;;;12.10;99.90;;;;;;1863532;77;21068;-74
2021/05/12 09:00:00;;;;;;;7.70;1.17;;;12.20;99.90;;;;;;1863543;77;21158;-74
2021/05/12 09:02:26;;;;;;;4.00;1.20;;;12.10;99.90;;;;;;1863481;77;21103;-75
2021/05/12 09:04:52;;;;;;;4.00;0.98;;;12.10;99.90;;;;;;1863512;77;21132;-75
2021/05/12 09:07:18;;;;;;;2.67;1.07;;;12.20;99.90;;;;;;1863543;77;21056;-75
2021/05/12 09:09:44;;;;;;;3.47;1.17;;;12.10;99.90;;;;;;1863566;77;21515;-75
2021/05/12 09:12:14;;;;;;;4.33;1.80;;;12.20;99.90;;;;;;1863489;77;21610;-74
2021/05/12 09:14:40;;;;;;;5.47;1.62;;;12.30;99.90;;;;;;1862995;77;21112;-75
2021/05/12 09:17:06;;;;;;;1.30;1.02;;;12.30;99.90;;;;;;1863457;77;21155;-75
2021/05/12 09:19:32;;;;;;;1.77;1.10;;;12.40;99.90;;;;;;1863588;77;21185;-74
2021/05/12 09:21:58;;;;;;;3.62;1.35;;;12.50;99.90;;;;;;1863519;77;21149;-74
2021/05/12 09:24:25;;;;;;;2.33;0.95;;;12.60;99.90;;;;;;1863588;77;21141;-74
2021/05/12 09:26:51;;;;;;;1.67;0.82;;;12.70;99.90;;;;;;1863813;77;21192;-75
2021/05/12 09:29:17;;;;;;;2.83;1.20;;;12.80;99.90;;;;;;1863873;77;21044;-74
2021/05/12 09:31:43;;;;;;;4.58;1.00;;;12.90;99.90;;;;;;1863956;77;21048;-74
2021/05/12 09:34:11;;;;;;;3.58;1.42;;;13.00;99.90;;;;;;1863970;77;21075;-74
2021/05/12 09:36:37;;;;;;;2.67;1.10;;;13.10;99.90;;;;;;1863775;77;21166;-75
2021/05/12 09:39:03;;;;;;;3.77;1.30;;;13.10;99.90;;;;;;1863862;77;21076;-75
2021/05/12 09:41:29;;;;;;;3.52;1.05;;;13.10;99.90;;;;;;1863896;77;21180;-74
2021/05/12 09:43:56;;;;;;;2.37;1.10;;;13.10;99.90;;;;;;1863894;77;21083;-75
2021/05/12 09:46:22;;;;;;;6.45;1.30;;;13.10;99.90;;;;;;1863553;77;21587;-75
2021/05/12 09:48:48;;;;;;;1.15;1.00;;;13.10;99.90;;;;;;1863798;77;21079;-73
2021/05/12 09:51:14;;;;;;;2.15;1.30;;;13.00;99.90;;;;;;1863881;77;21075;-74
2021/05/12 09:53:42;;;;;;;2.30;1.22;;;12.80;99.90;;;;;;1863756;77;21204;-75
2021/05/12 09:56:09;;;;;;;1.10;1.00;;;12.90;99.90;;;;;;1863884;77;21084;-75
2021/05/12 09:58:36;;;;;;;5.35;1.05;;;13.10;99.90;;;;;;1863840;77;21515;-74
2021/05/12 10:01:02;;;;;;;5.37;1.42;;;13.20;99.90;;;;;;1863699;77;21080;-75
2021/05/12 10:03:29;;;;;;;5.70;1.72;;;13.30;99.90;;;;;;1859972;76;21157;-73
2021/05/12 10:05:55;;;;;;;2.05;1.12;;;13.20;99.90;;;;;;1863801;77;21114;-75
2021/05/12 10:08:22;;;;;;;3.50;1.35;;;13.40;99.90;;;;;;1863646;77;21193;-76
2021/05/12 10:10:48;;;;;;;5.10;0.90;;;13.30;99.90;;;;;;1863496;77;21080;-76
2021/05/12 10:13:14;;;;;;;5.15;1.17;;;13.20;99.90;;;;;;1865120;77;21174;-75
2021/05/12 10:15:40;;;;;;;1.27;1.00;;;13.20;99.90;;;;;;1840219;77;21044;-76
2021/05/12 10:18:10;;;;;;;3.17;1.20;;;13.20;99.90;;;;;;1863554;77;21149;-76
2021/05/12 10:20:34;;;;;;;3.92;1.90;;;13.20;99.90;;;;;;1863544;77;21452;-76
2021/05/12 10:23:00;;;;;;;3.85;0.95;;;13.00;99.90;;;;;;1865125;77;21049;-76
2021/05/12 10:25:26;;;;;;;1.35;1.12;;;13.00;99.90;;;;;;1863226;77;21146;-76
2021/05/12 10:27:53;;;;;;;4.00;1.07;;;12.90;99.90;;;;;;1863231;77;21079;-75
2021/05/12 10:30:20;;;;;;;1.52;1.00;;;12.90;99.90;;;;;;1863128;77;21496;-76
2021/05/12 10:33:12;;;;;;;3.70;1.10;;;13.00;99.90;;;;;;1863201;77;21477;-75
2021/05/12 10:35:15;;;;;;;4.45;1.35;;;13.10;99.90;;;;;;1849054;77;21048;-75
2021/05/12 10:37:41;;;;;;;3.60;1.30;;;13.10;99.90;;;;;;1863065;77;21177;-76
2021/05/12 10:40:08;;;;;;;1.57;1.25;;;13.10;99.90;;;;;;1863072;77;21141;-76
2021/05/12 10:42:34;;;;;;;4.37;1.12;;;13.10;99.90;;;;;;1863213;77;21079;-74
2021/05/12 10:45:01;;;;;;;7.30;1.77;;;13.00;99.90;;;;;;1863738;77;21149;-76
2021/05/12 10:47:28;;;;;;;1.35;1.07;;;12.80;99.90;;;;;;1863600;77;21476;-75
2021/05/12 10:49:57;;;;;;;9.10;1.12;;;12.90;99.90;;;;;;1863536;77;21455;-76
2021/05/12 10:52:22;;;;;;;1.55;1.05;;;13.00;99.90;;;;;;1862856;77;21159;-76
2021/05/12 10:54:48;;;;;;;4.55;1.35;;;13.20;99.90;;;;;;1863805;77;21138;-76
2021/05/12 10:57:14;;;;;;;2.37;1.07;;;13.30;99.90;;;;;;1863541;77;21146;-76
2021/05/12 10:59:41;;;;;;;4.97;0.70;;;13.30;99.90;;;;;;1863612;77;21122;-77
2021/05/12 11:02:07;;;;;;;1.87;1.27;;;13.30;99.90;;;;;;1839545;77;21168;-74
2021/05/12 11:04:33;;;;;;;1.85;1.07;;;13.30;99.90;;;;;;1863591;77;21137;-76
2021/05/12 11:06:59;;;;;;;3.47;1.25;;;13.30;99.90;;;;;;1863659;77;21060;-76
2021/05/12 11:09:28;;;;;;;1.50;0.98;;;13.30;99.90;;;;;;1863500;77;21620;-74
2021/05/12 11:11:53;;;;;;;0.80;0.80;;;13.20;99.90;;;;;;1863270;77;21093;-75
2021/05/12 11:14:20;;;;;;;4.92;0.82;;;13.30;99.90;;;;;;1863422;77;21425;-74
2021/05/12 11:16:46;;;;;;;2.40;1.00;;;13.30;99.90;;;;;;1863284;77;21075;-75
2021/05/12 11:19:12;;;;;;;1.87;0.90;;;13.30;99.90;;;;;;1863358;77;21119;-74
2021/05/12 11:21:41;;;;;;;1.90;1.05;;;13.40;99.90;;;;;;1863427;76;21072;-75
2021/05/12 11:24:12;;;;;;;1.65;1.00;;;13.40;99.90;;;;;;1863150;77;21116;-75
2021/05/12 11:26:49;;;;;;;5.22;1.22;;;13.60;99.90;;;;;;1863348;77;21109;-74
2021/05/12 11:31:38;;;;;;;2.00;1.02;;;13.60;99.90;;;;;;1757719;82;21513;-76
2021/05/12 11:34:01;;;;;;;5.67;1.25;;;13.50;99.90;;;;;;1834119;77;21133;-75
2021/05/12 11:36:32;;;;;;;3.40;0.90;;;13.70;99.90;;;;;;1863505;77;21098;-75
2021/05/12 11:38:55;;;;;;;2.65;1.57;;;13.80;99.90;;;;;;1863039;75;21161;-76
2021/05/12 11:41:21;;;;;;;3.00;0.93;;;14.00;99.90;;;;;;1863698;77;21181;-75
2021/05/12 11:43:49;;;;;;;3.05;1.10;;;14.20;99.90;;;;;;1863915;77;21181;-76
2021/05/12 11:46:15;;;;;;;1.87;1.07;;;14.30;99.90;;;;;;1863997;77;21053;-77
2021/05/12 11:48:41;;;;;;;2.27;1.07;;;14.40;99.90;;;;;;1863800;77;21436;-77
2021/05/12 11:51:07;;;;;;;2.80;0.93;;;14.40;99.90;;;;;;1863649;77;21040;-74
2021/05/12 11:53:33;;;;;;;1.75;0.90;;;14.60;99.90;;;;;;1863912;77;21146;-74
2021/05/12 11:56:00;;;;;;;1.60;1.10;;;14.40;99.90;;;;;;1863734;77;21137;-74
2021/05/12 11:58:26;;;;;;;1.42;1.00;;;14.50;99.90;;;;;;1863906;77;21060;-74
2021/05/12 12:00:55;;;;;;;2.08;1.07;;;14.40;99.90;;;;;;1864001;77;21123;-74
2021/05/12 12:03:20;;;;;;;1.00;0.80;;;14.50;99.90;;;;;;1863372;77;21104;-75
2021/05/12 12:05:55;;;;;;;2.85;1.00;;;14.60;99.90;;;;;;1863760;77;21087;-74
2021/05/12 12:08:18;;;;;;;2.22;1.02;;;14.50;99.90;;;;;;1863095;77;21100;-76
2021/05/12 12:10:44;;;;;;;4.47;1.27;;;14.00;99.90;;;;;;1863802;77;21075;-75
2021/05/12 12:13:11;;;;;;;5.70;1.20;;;14.20;99.90;;;;;;1863789;77;21091;-74
2021/05/12 12:15:38;;;;;;;8.30;1.27;;;14.50;99.90;;;;;;1863769;77;21091;-75
2021/05/12 12:18:04;;;;;;;2.42;1.35;;;14.80;99.90;;;;;;1864132;77;21052;-75
2021/05/12 12:20:32;;;;;;;4.95;1.02;;;14.80;99.90;;;;;;1863816;77;21134;-74
2021/05/12 12:23:00;;;;;;;2.02;1.10;;;14.70;99.90;;;;;;1863886;77;21116;-76
2021/05/12 12:25:31;;;;;;;4.95;0.80;;;15.00;99.90;;;;;;1863720;77;21508;-75
2021/05/12 12:27:55;;;;;;;3.00;1.22;;;15.10;99.90;;;;;;1862954;77;21170;-75
2021/05/12 12:30:21;;;;;;;2.80;1.07;;;14.90;99.90;;;;;;1863494;77;21237;-75
2021/05/12 12:32:52;;;;;;;2.00;1.17;;;14.70;99.90;;;;;;1863695;77;21044;-75
2021/05/12 12:35:15;;;;;;;8.15;1.07;;;14.70;99.90;;;;;;1861499;77;21075;-74
2021/05/12 12:37:43;;;;;;;1.27;0.98;;;14.70;99.90;;;;;;1863593;77;21126;-73
2021/05/12 12:40:09;;;;;;;4.28;1.35;;;14.50;99.90;;;;;;1863515;77;21531;-75
2021/05/12 12:42:36;;;;;;;3.12;1.07;;;14.50;99.90;;;;;;1863668;77;21145;-74
2021/05/12 12:45:04;;;;;;;1.30;1.15;;;14.60;99.90;;;;;;1863460;77;21135;-74